sensor_id;sensor_type;location;lat;lon;timestamp;temperature;humidity
27900;DHT22;15243;50.726;7.080;2023-02-01T00:01:14;6.70;99.90
27900;DHT22;15243;50.726;7.080;2023-02-01T00:03:41;6.60;99.90
27900;DHT22;15243;50.726;7.080;2023-02-01T00:06:09;6.40;99.90
27900;DHT22;15243;50.726;7.080;2023-02-01T00:08:36;6.40;99.90
27900;DHT22;15243;50.726;7.080;2023-02-01T00:11:08;6.20;99.90
27900;DHT22;15243;50.726;7.080;2023-02-01T00:13:37;6.20;99.90
27900;DHT22;15243;50.726;7.080;2023-02-01T00:18:34;6.00;99.90
27900;DHT22;15243;50.726;7.080;2023-02-01T00:21:01;6.00;99.90
27900;DHT22;15243;50.726;7.080;2023-02-01T00:23:31;6.10;99.90
27900;DHT22;15243;50.726;7.080;2023-02-01T00:26:03;6.10;99.90
27900;DHT22;15243;50.726;7.080;2023-02-01T00:28:30;6.10;99.90
27900;DHT22;15243;50.726;7.080;2023-02-01T00:31:03;6.10;99.90
27900;DHT22;15243;50.726;7.080;2023-02-01T00:33:31;6.10;99.90
27900;DHT22;15243;50.726;7.080;2023-02-01T00:36:04;6.10;99.90
27900;DHT22;15243;50.726;7.080;2023-02-01T00:38:33;6.30;99.90
27900;DHT22;15243;50.726;7.080;2023-02-01T00:41:05;6.30;99.90
27900;DHT22;15243;50.726;7.080;2023-02-01T00:43:32;6.40;99.90
27900;DHT22;15243;50.726;7.080;2023-02-01T00:46:00;6.50;99.90
27900;DHT22;15243;50.726;7.080;2023-02-01T00:48:27;6.50;99.90
27900;DHT22;15243;50.726;7.080;2023-02-01T00:50:54;6.60;99.90
27900;DHT22;15243;50.726;7.080;2023-02-01T00:53:25;6.60;99.90
27900;DHT22;15243;50.726;7.080;2023-02-01T00:55:51;6.60;99.90
27900;DHT22;15243;50.726;7.080;2023-02-01T00:58:18;6.70;99.90
27900;DHT22;15243;50.726;7.080;2023-02-01T01:00:45;6.70;99.90
27900;DHT22;15243;50.726;7.080;2023-02-01T01:03:13;6.80;99.90
27900;DHT22;15243;50.726;7.080;2023-02-01T01:05:50;6.70;99.90
27900;DHT22;15243;50.726;7.080;2023-02-01T01:08:17;6.70;99.90
27900;DHT22;15243;50.726;7.080;2023-02-01T01:10:44;6.70;99.90
27900;DHT22;15243;50.726;7.080;2023-02-01T01:13:10;6.80;99.90
27900;DHT22;15243;50.726;7.080;2023-02-01T01:15:39;6.70;99.90
27900;DHT22;15243;50.726;7.080;2023-02-01T01:18:07;6.70;99.90
27900;DHT22;15243;50.726;7.080;2023-02-01T01:20:35;6.70;99.90
27900;DHT22;15243;50.726;7.080;2023-02-01T01:23:03;6.70;99.90
27900;DHT22;15243;50.726;7.080;2023-02-01T01:25:30;6.70;99.90
27900;DHT22;15243;50.726;7.080;2023-02-01T01:27:57;6.70;99.90
27900;DHT22;15243;50.726;7.080;2023-02-01T01:30:24;6.80;99.90
27900;DHT22;15243;50.726;7.080;2023-02-01T01:32:52;6.70;99.90
27900;DHT22;15243;50.726;7.080;2023-02-01T01:35:19;6.70;99.90
27900;DHT22;15243;50.726;7.080;2023-02-01T01:37:45;6.70;99.90
27900;DHT22;15243;50.726;7.080;2023-02-01T01:40:12;6.70;99.90
27900;DHT22;15243;50.726;7.080;2023-02-01T01:42:41;6.70;99.90
27900;DHT22;15243;50.726;7.080;2023-02-01T01:45:27;6.70;99.90
27900;DHT22;15243;50.726;7.080;2023-02-01T01:48:07;6.60;99.90
27900;DHT22;15243;50.726;7.080;2023-02-01T01:50:46;6.60;99.90
27900;DHT22;15243;50.726;7.080;2023-02-01T01:53:21;6.50;99.90
27900;DHT22;15243;50.726;7.080;2023-02-01T01:55:50;6.60;99.90
27900;DHT22;15243;50.726;7.080;2023-02-01T01:58:19;6.60;99.90
27900;DHT22;15243;50.726;7.080;2023-02-01T02:00:48;6.60;99.90
27900;DHT22;15243;50.726;7.080;2023-02-01T02:03:17;6.50;99.90
27900;DHT22;15243;50.726;7.080;2023-02-01T02:05:46;6.50;99.90
27900;DHT22;15243;50.726;7.080;2023-02-01T02:08:14;6.50;99.90
27900;DHT22;15243;50.726;7.080;2023-02-01T02:10:40;6.60;99.90
27900;DHT22;15243;50.726;7.080;2023-02-01T02:13:40;6.60;99.90
27900;DHT22;15243;50.726;7.080;2023-02-01T02:25:16;6.60;99.90
27900;DHT22;15243;50.726;7.080;2023-02-01T02:28:06;6.60;99.90
27900;DHT22;15243;50.726;7.080;2023-02-01T02:44:50;6.70;99.90
27900;DHT22;15243;50.726;7.080;2023-02-01T02:50:20;6.70;99.90
27900;DHT22;15243;50.726;7.080;2023-02-01T02:53:15;6.70;99.90
27900;DHT22;15243;50.726;7.080;2023-02-01T02:56:01;6.60;99.90
27900;DHT22;15243;50.726;7.080;2023-02-01T02:58:48;6.60;99.90
27900;DHT22;15243;50.726;7.080;2023-02-01T03:01:33;6.70;99.90
27900;DHT22;15243;50.726;7.080;2023-02-01T03:04:19;6.60;99.90
27900;DHT22;15243;50.726;7.080;2023-02-01T03:06:46;6.70;99.90
27900;DHT22;15243;50.726;7.080;2023-02-01T03:09:23;6.60;99.90
27900;DHT22;15243;50.726;7.080;2023-02-01T03:11:58;6.60;99.90
27900;DHT22;15243;50.726;7.080;2023-02-01T03:14:46;6.60;99.90
27900;DHT22;15243;50.726;7.080;2023-02-01T03:17:17;6.60;99.90
27900;DHT22;15243;50.726;7.080;2023-02-01T03:19:47;6.60;99.90
27900;DHT22;15243;50.726;7.080;2023-02-01T03:22:21;6.60;99.90
27900;DHT22;15243;50.726;7.080;2023-02-01T03:24:53;6.60;99.90
27900;DHT22;15243;50.726;7.080;2023-02-01T03:27:31;6.70;99.90
27900;DHT22;15243;50.726;7.080;2023-02-01T03:30:20;6.80;99.90
27900;DHT22;15243;50.726;7.080;2023-02-01T03:32:52;6.70;99.90
27900;DHT22;15243;50.726;7.080;2023-02-01T03:38:12;6.70;99.90
27900;DHT22;15243;50.726;7.080;2023-02-01T03:40:42;6.70;99.90
27900;DHT22;15243;50.726;7.080;2023-02-01T03:43:14;6.80;99.90
27900;DHT22;15243;50.726;7.080;2023-02-01T03:45:48;6.80;99.90
27900;DHT22;15243;50.726;7.080;2023-02-01T03:48:16;6.70;99.90
27900;DHT22;15243;50.726;7.080;2023-02-01T03:50:48;6.70;99.90
27900;DHT22;15243;50.726;7.080;2023-02-01T03:53:18;6.70;99.90
27900;DHT22;15243;50.726;7.080;2023-02-01T03:55:47;6.70;99.90
27900;DHT22;15243;50.726;7.080;2023-02-01T03:58:22;6.70;99.90
27900;DHT22;15243;50.726;7.080;2023-02-01T04:00:57;6.70;99.90
27900;DHT22;15243;50.726;7.080;2023-02-01T04:03:25;6.80;99.90
27900;DHT22;15243;50.726;7.080;2023-02-01T04:05:53;6.70;99.90
27900;DHT22;15243;50.726;7.080;2023-02-01T04:08:20;6.70;99.90
27900;DHT22;15243;50.726;7.080;2023-02-01T04:10:47;6.80;99.90
27900;DHT22;15243;50.726;7.080;2023-02-01T04:13:14;6.80;99.90
27900;DHT22;15243;50.726;7.080;2023-02-01T04:15:41;6.70;99.90
27900;DHT22;15243;50.726;7.080;2023-02-01T04:18:08;6.70;99.90
27900;DHT22;15243;50.726;7.080;2023-02-01T04:20:34;6.70;99.90
27900;DHT22;15243;50.726;7.080;2023-02-01T04:23:01;6.60;99.90
27900;DHT22;15243;50.726;7.080;2023-02-01T04:25:29;6.60;99.90
27900;DHT22;15243;50.726;7.080;2023-02-01T04:27:56;6.50;99.90
27900;DHT22;15243;50.726;7.080;2023-02-01T04:30:23;6.60;99.90
27900;DHT22;15243;50.726;7.080;2023-02-01T04:32:51;6.60;99.90
27900;DHT22;15243;50.726;7.080;2023-02-01T04:35:17;6.50;99.90
27900;DHT22;15243;50.726;7.080;2023-02-01T04:37:44;6.60;99.90
27900;DHT22;15243;50.726;7.080;2023-02-01T04:40:11;6.50;99.90
27900;DHT22;15243;50.726;7.080;2023-02-01T04:42:38;6.40;99.90
27900;DHT22;15243;50.726;7.080;2023-02-01T04:45:06;6.40;99.90
27900;DHT22;15243;50.726;7.080;2023-02-01T04:47:33;6.40;99.90
27900;DHT22;15243;50.726;7.080;2023-02-01T04:49:59;6.40;99.90
27900;DHT22;15243;50.726;7.080;2023-02-01T04:52:26;6.30;99.90
27900;DHT22;15243;50.726;7.080;2023-02-01T04:54:53;6.30;99.90
27900;DHT22;15243;50.726;7.080;2023-02-01T04:57:25;6.30;99.90
27900;DHT22;15243;50.726;7.080;2023-02-01T04:59:52;6.30;99.90
27900;DHT22;15243;50.726;7.080;2023-02-01T05:02:19;6.40;99.90
27900;DHT22;15243;50.726;7.080;2023-02-01T05:04:46;6.40;99.90
27900;DHT22;15243;50.726;7.080;2023-02-01T05:07:12;6.40;99.90
27900;DHT22;15243;50.726;7.080;2023-02-01T05:09:39;6.30;99.90
27900;DHT22;15243;50.726;7.080;2023-02-01T05:12:09;6.30;99.90
27900;DHT22;15243;50.726;7.080;2023-02-01T05:14:55;6.20;99.90
27900;DHT22;15243;50.726;7.080;2023-02-01T05:17:21;6.20;99.90
27900;DHT22;15243;50.726;7.080;2023-02-01T05:19:48;6.10;99.90
27900;DHT22;15243;50.726;7.080;2023-02-01T05:22:15;6.10;99.90
27900;DHT22;15243;50.726;7.080;2023-02-01T05:24:42;6.20;99.90
27900;DHT22;15243;50.726;7.080;2023-02-01T05:27:09;6.10;99.90
27900;DHT22;15243;50.726;7.080;2023-02-01T05:29:35;6.20;99.90
27900;DHT22;15243;50.726;7.080;2023-02-01T05:32:02;6.10;99.90
27900;DHT22;15243;50.726;7.080;2023-02-01T05:34:46;6.00;99.90
27900;DHT22;15243;50.726;7.080;2023-02-01T05:37:13;6.00;99.90
27900;DHT22;15243;50.726;7.080;2023-02-01T05:39:40;6.00;99.90
27900;DHT22;15243;50.726;7.080;2023-02-01T05:42:07;5.90;99.90
27900;DHT22;15243;50.726;7.080;2023-02-01T05:44:34;5.90;99.90
27900;DHT22;15243;50.726;7.080;2023-02-01T05:47:00;6.00;99.90
27900;DHT22;15243;50.726;7.080;2023-02-01T05:49:27;5.90;99.90
27900;DHT22;15243;50.726;7.080;2023-02-01T05:51:54;5.90;99.90
27900;DHT22;15243;50.726;7.080;2023-02-01T05:54:22;5.80;99.90
27900;DHT22;15243;50.726;7.080;2023-02-01T05:56:49;5.80;99.90
27900;DHT22;15243;50.726;7.080;2023-02-01T05:59:17;5.80;99.90
27900;DHT22;15243;50.726;7.080;2023-02-01T06:01:43;5.90;99.90
27900;DHT22;15243;50.726;7.080;2023-02-01T06:04:10;5.70;99.90
27900;DHT22;15243;50.726;7.080;2023-02-01T06:06:37;5.70;99.90
27900;DHT22;15243;50.726;7.080;2023-02-01T06:09:04;5.70;99.90
27900;DHT22;15243;50.726;7.080;2023-02-01T06:11:31;5.80;99.90
27900;DHT22;15243;50.726;7.080;2023-02-01T06:13:59;5.70;99.90
27900;DHT22;15243;50.726;7.080;2023-02-01T06:16:26;5.70;99.90
27900;DHT22;15243;50.726;7.080;2023-02-01T06:18:53;5.70;99.90
27900;DHT22;15243;50.726;7.080;2023-02-01T06:21:20;5.70;99.90
27900;DHT22;15243;50.726;7.080;2023-02-01T06:23:51;5.60;99.90
27900;DHT22;15243;50.726;7.080;2023-02-01T06:26:18;5.70;99.90
27900;DHT22;15243;50.726;7.080;2023-02-01T06:28:45;5.70;99.90
27900;DHT22;15243;50.726;7.080;2023-02-01T06:31:12;5.70;99.90
27900;DHT22;15243;50.726;7.080;2023-02-01T06:33:39;5.60;99.90
27900;DHT22;15243;50.726;7.080;2023-02-01T06:36:07;5.60;99.90
27900;DHT22;15243;50.726;7.080;2023-02-01T06:38:34;5.60;99.90
27900;DHT22;15243;50.726;7.080;2023-02-01T06:41:02;5.60;99.90
27900;DHT22;15243;50.726;7.080;2023-02-01T06:43:30;5.50;99.90
27900;DHT22;15243;50.726;7.080;2023-02-01T06:46:02;5.50;99.90
27900;DHT22;15243;50.726;7.080;2023-02-01T06:48:30;5.60;99.90
27900;DHT22;15243;50.726;7.080;2023-02-01T06:50:57;5.50;99.90
27900;DHT22;15243;50.726;7.080;2023-02-01T06:53:24;5.50;99.90
27900;DHT22;15243;50.726;7.080;2023-02-01T06:56:02;5.40;99.90
27900;DHT22;15243;50.726;7.080;2023-02-01T06:58:30;5.50;99.90
27900;DHT22;15243;50.726;7.080;2023-02-01T07:00:58;5.50;99.90
27900;DHT22;15243;50.726;7.080;2023-02-01T07:03:25;5.50;99.90
27900;DHT22;15243;50.726;7.080;2023-02-01T07:05:55;5.50;99.90
27900;DHT22;15243;50.726;7.080;2023-02-01T07:08:23;5.50;99.90
27900;DHT22;15243;50.726;7.080;2023-02-01T07:10:50;5.60;99.90
27900;DHT22;15243;50.726;7.080;2023-02-01T07:13:17;5.60;99.90
27900;DHT22;15243;50.726;7.080;2023-02-01T07:15:43;5.50;99.90
27900;DHT22;15243;50.726;7.080;2023-02-01T07:18:10;5.60;99.90
27900;DHT22;15243;50.726;7.080;2023-02-01T07:20:37;5.50;99.90
27900;DHT22;15243;50.726;7.080;2023-02-01T07:23:04;5.40;99.90
27900;DHT22;15243;50.726;7.080;2023-02-01T07:25:31;5.40;99.90
27900;DHT22;15243;50.726;7.080;2023-02-01T07:27:58;5.40;99.90
27900;DHT22;15243;50.726;7.080;2023-02-01T07:30:25;5.50;99.90
27900;DHT22;15243;50.726;7.080;2023-02-01T07:32:52;5.50;99.90
27900;DHT22;15243;50.726;7.080;2023-02-01T07:35:19;5.50;99.90
27900;DHT22;15243;50.726;7.080;2023-02-01T07:37:46;5.50;99.90
27900;DHT22;15243;50.726;7.080;2023-02-01T07:40:13;5.50;99.90
27900;DHT22;15243;50.726;7.080;2023-02-01T07:42:40;5.50;99.90
27900;DHT22;15243;50.726;7.080;2023-02-01T07:45:07;5.50;99.90
27900;DHT22;15243;50.726;7.080;2023-02-01T07:47:47;5.60;99.90
27900;DHT22;15243;50.726;7.080;2023-02-01T07:50:14;5.60;99.90
27900;DHT22;15243;50.726;7.080;2023-02-01T07:52:41;5.60;99.90
27900;DHT22;15243;50.726;7.080;2023-02-01T07:55:09;5.60;99.90
27900;DHT22;15243;50.726;7.080;2023-02-01T07:57:36;5.70;99.90
27900;DHT22;15243;50.726;7.080;2023-02-01T08:00:03;5.70;99.90
27900;DHT22;15243;50.726;7.080;2023-02-01T08:02:49;5.80;99.90
27900;DHT22;15243;50.726;7.080;2023-02-01T08:05:15;5.80;99.90
27900;DHT22;15243;50.726;7.080;2023-02-01T08:07:42;5.80;99.90
27900;DHT22;15243;50.726;7.080;2023-02-01T08:10:09;5.80;99.90
27900;DHT22;15243;50.726;7.080;2023-02-01T08:12:38;5.90;99.90
27900;DHT22;15243;50.726;7.080;2023-02-01T08:15:05;5.90;99.90
27900;DHT22;15243;50.726;7.080;2023-02-01T08:17:32;5.90;99.90
27900;DHT22;15243;50.726;7.080;2023-02-01T08:19:59;5.90;99.90
27900;DHT22;15243;50.726;7.080;2023-02-01T08:22:26;6.00;99.90
27900;DHT22;15243;50.726;7.080;2023-02-01T08:24:52;6.10;99.90
27900;DHT22;15243;50.726;7.080;2023-02-01T08:27:27;6.10;99.90
27900;DHT22;15243;50.726;7.080;2023-02-01T08:29:54;6.00;99.90
27900;DHT22;15243;50.726;7.080;2023-02-01T08:32:21;6.00;99.90
27900;DHT22;15243;50.726;7.080;2023-02-01T08:34:48;6.10;99.90
27900;DHT22;15243;50.726;7.080;2023-02-01T08:37:15;6.10;99.90
27900;DHT22;15243;50.726;7.080;2023-02-01T08:39:41;6.10;99.90
27900;DHT22;15243;50.726;7.080;2023-02-01T08:42:13;6.20;99.90
27900;DHT22;15243;50.726;7.080;2023-02-01T08:44:58;6.20;99.90
27900;DHT22;15243;50.726;7.080;2023-02-01T08:47:25;6.30;99.90
27900;DHT22;15243;50.726;7.080;2023-02-01T08:49:52;6.30;99.90
27900;DHT22;15243;50.726;7.080;2023-02-01T08:52:20;6.30;99.90
27900;DHT22;15243;50.726;7.080;2023-02-01T08:54:47;6.30;99.90
27900;DHT22;15243;50.726;7.080;2023-02-01T08:57:14;6.30;99.90
27900;DHT22;15243;50.726;7.080;2023-02-01T08:59:41;6.40;99.90
27900;DHT22;15243;50.726;7.080;2023-02-01T09:02:12;6.50;99.90
27900;DHT22;15243;50.726;7.080;2023-02-01T09:04:40;6.50;99.90
27900;DHT22;15243;50.726;7.080;2023-02-01T09:07:09;6.40;99.90
27900;DHT22;15243;50.726;7.080;2023-02-01T09:09:36;6.50;99.90
27900;DHT22;15243;50.726;7.080;2023-02-01T09:12:03;6.50;99.90
27900;DHT22;15243;50.726;7.080;2023-02-01T09:14:30;6.50;99.90
27900;DHT22;15243;50.726;7.080;2023-02-01T09:16:57;6.50;99.90
27900;DHT22;15243;50.726;7.080;2023-02-01T09:19:24;6.50;99.90
27900;DHT22;15243;50.726;7.080;2023-02-01T09:21:53;6.60;99.90
27900;DHT22;15243;50.726;7.080;2023-02-01T09:24:20;6.60;99.90
27900;DHT22;15243;50.726;7.080;2023-02-01T09:26:46;6.60;99.90
27900;DHT22;15243;50.726;7.080;2023-02-01T09:29:13;6.70;99.90
27900;DHT22;15243;50.726;7.080;2023-02-01T09:31:40;6.80;99.90
27900;DHT22;15243;50.726;7.080;2023-02-01T09:34:19;6.80;99.90
27900;DHT22;15243;50.726;7.080;2023-02-01T09:36:45;6.80;99.90
27900;DHT22;15243;50.726;7.080;2023-02-01T09:39:15;6.80;99.90
27900;DHT22;15243;50.726;7.080;2023-02-01T09:46:56;6.80;99.90
27900;DHT22;15243;50.726;7.080;2023-02-01T09:49:28;6.70;99.90
27900;DHT22;15243;50.726;7.080;2023-02-01T09:51:57;6.80;99.90
27900;DHT22;15243;50.726;7.080;2023-02-01T09:54:27;6.70;99.90
27900;DHT22;15243;50.726;7.080;2023-02-01T09:57:07;6.80;99.90
27900;DHT22;15243;50.726;7.080;2023-02-01T10:02:24;7.00;99.90
27900;DHT22;15243;50.726;7.080;2023-02-01T10:04:56;7.10;99.90
27900;DHT22;15243;50.726;7.080;2023-02-01T10:07:43;6.90;99.90
27900;DHT22;15243;50.726;7.080;2023-02-01T10:10:21;7.10;99.90
27900;DHT22;15243;50.726;7.080;2023-02-01T10:13:07;7.10;99.90
27900;DHT22;15243;50.726;7.080;2023-02-01T10:16:00;7.10;99.90
27900;DHT22;15243;50.726;7.080;2023-02-01T10:18:57;7.10;99.90
27900;DHT22;15243;50.726;7.080;2023-02-01T10:24:39;7.10;99.90
27900;DHT22;15243;50.726;7.080;2023-02-01T10:27:17;7.10;99.90
27900;DHT22;15243;50.726;7.080;2023-02-01T10:29:52;7.10;99.90
27900;DHT22;15243;50.726;7.080;2023-02-01T10:32:24;7.20;99.90
27900;DHT22;15243;50.726;7.080;2023-02-01T10:34:59;7.30;99.90
27900;DHT22;15243;50.726;7.080;2023-02-01T10:37:32;7.30;99.90
27900;DHT22;15243;50.726;7.080;2023-02-01T10:40:03;7.20;99.90
27900;DHT22;15243;50.726;7.080;2023-02-01T10:42:36;7.30;99.90
27900;DHT22;15243;50.726;7.080;2023-02-01T10:45:03;7.40;99.90
27900;DHT22;15243;50.726;7.080;2023-02-01T10:47:30;7.50;99.90
27900;DHT22;15243;50.726;7.080;2023-02-01T10:50:15;7.50;99.90
27900;DHT22;15243;50.726;7.080;2023-02-01T10:52:52;7.80;99.90
27900;DHT22;15243;50.726;7.080;2023-02-01T10:55:46;7.90;99.90
27900;DHT22;15243;50.726;7.080;2023-02-01T10:58:17;7.90;99.90
27900;DHT22;15243;50.726;7.080;2023-02-01T11:01:07;8.00;99.90
27900;DHT22;15243;50.726;7.080;2023-02-01T11:03:42;7.90;99.90
27900;DHT22;15243;50.726;7.080;2023-02-01T11:06:26;8.20;99.90
27900;DHT22;15243;50.726;7.080;2023-02-01T11:08:54;8.00;99.90
27900;DHT22;15243;50.726;7.080;2023-02-01T11:11:22;7.90;99.90
27900;DHT22;15243;50.726;7.080;2023-02-01T11:13:58;7.80;99.90
27900;DHT22;15243;50.726;7.080;2023-02-01T11:16:37;7.80;99.90
27900;DHT22;15243;50.726;7.080;2023-02-01T11:19:05;7.70;99.90
27900;DHT22;15243;50.726;7.080;2023-02-01T11:21:33;7.80;99.90
27900;DHT22;15243;50.726;7.080;2023-02-01T11:24:04;7.90;99.90
27900;DHT22;15243;50.726;7.080;2023-02-01T11:26:32;7.90;99.90
27900;DHT22;15243;50.726;7.080;2023-02-01T11:29:03;7.80;99.90
27900;DHT22;15243;50.726;7.080;2023-02-01T11:31:33;7.90;99.90
27900;DHT22;15243;50.726;7.080;2023-02-01T11:34:11;7.90;99.90
27900;DHT22;15243;50.726;7.080;2023-02-01T11:36:41;7.90;99.90
27900;DHT22;15243;50.726;7.080;2023-02-01T11:39:30;7.90;99.90
27900;DHT22;15243;50.726;7.080;2023-02-01T11:42:11;8.00;99.90
27900;DHT22;15243;50.726;7.080;2023-02-01T11:44:41;8.00;99.90
27900;DHT22;15243;50.726;7.080;2023-02-01T11:49:55;8.00;99.90
27900;DHT22;15243;50.726;7.080;2023-02-01T11:52:33;8.20;99.90
27900;DHT22;15243;50.726;7.080;2023-02-01T12:03:43;8.10;99.90
27900;DHT22;15243;50.726;7.080;2023-02-01T12:06:31;8.00;99.90
27900;DHT22;15243;50.726;7.080;2023-02-01T12:22:44;7.90;99.90
27900;DHT22;15243;50.726;7.080;2023-02-01T12:25:46;7.80;99.90
27900;DHT22;15243;50.726;7.080;2023-02-01T12:36:55;7.70;99.90
27900;DHT22;15243;50.726;7.080;2023-02-01T12:39:36;7.70;99.90
27900;DHT22;15243;50.726;7.080;2023-02-01T12:47:25;7.90;99.90
27900;DHT22;15243;50.726;7.080;2023-02-01T12:50:04;7.90;99.90
27900;DHT22;15243;50.726;7.080;2023-02-01T12:52:52;7.90;99.90
27900;DHT22;15243;50.726;7.080;2023-02-01T12:55:25;7.80;99.90
27900;DHT22;15243;50.726;7.080;2023-02-01T12:58:15;7.90;99.90
27900;DHT22;15243;50.726;7.080;2023-02-01T13:00:52;8.00;99.90
27900;DHT22;15243;50.726;7.080;2023-02-01T13:06:35;8.00;99.90
27900;DHT22;15243;50.726;7.080;2023-02-01T13:11:47;8.10;99.90
27900;DHT22;15243;50.726;7.080;2023-02-01T13:17:14;8.20;99.90
27900;DHT22;15243;50.726;7.080;2023-02-01T13:20:19;8.20;99.90
27900;DHT22;15243;50.726;7.080;2023-02-01T13:22:53;8.10;99.90
27900;DHT22;15243;50.726;7.080;2023-02-01T13:42:21;7.90;99.90
27900;DHT22;15243;50.726;7.080;2023-02-01T13:44:58;7.90;99.90
27900;DHT22;15243;50.726;7.080;2023-02-01T13:47:38;7.90;99.90
27900;DHT22;15243;50.726;7.080;2023-02-01T13:50:34;7.80;99.90
27900;DHT22;15243;50.726;7.080;2023-02-01T13:53:17;7.70;99.90
27900;DHT22;15243;50.726;7.080;2023-02-01T13:55:49;7.80;99.90
27900;DHT22;15243;50.726;7.080;2023-02-01T13:58:29;7.70;99.90
27900;DHT22;15243;50.726;7.080;2023-02-01T14:01:32;7.60;99.90
27900;DHT22;15243;50.726;7.080;2023-02-01T14:04:04;7.70;99.90
27900;DHT22;15243;50.726;7.080;2023-02-01T14:21:59;8.00;99.90
27900;DHT22;15243;50.726;7.080;2023-02-01T14:24:30;8.00;99.90
27900;DHT22;15243;50.726;7.080;2023-02-01T14:27:07;8.00;99.90
27900;DHT22;15243;50.726;7.080;2023-02-01T14:29:49;8.00;99.90
27900;DHT22;15243;50.726;7.080;2023-02-01T14:32:22;8.00;99.90
27900;DHT22;15243;50.726;7.080;2023-02-01T14:34:56;8.00;99.90
27900;DHT22;15243;50.726;7.080;2023-02-01T14:37:39;8.00;99.90
27900;DHT22;15243;50.726;7.080;2023-02-01T14:40:18;8.00;99.90
27900;DHT22;15243;50.726;7.080;2023-02-01T14:42:48;8.10;99.90
27900;DHT22;15243;50.726;7.080;2023-02-01T14:50:33;8.10;99.90
27900;DHT22;15243;50.726;7.080;2023-02-01T14:55:42;8.20;99.90
27900;DHT22;15243;50.726;7.080;2023-02-01T15:00:49;8.20;99.90
27900;DHT22;15243;50.726;7.080;2023-02-01T15:05:58;8.20;99.90
27900;DHT22;15243;50.726;7.080;2023-02-01T15:08:33;8.20;99.90
27900;DHT22;15243;50.726;7.080;2023-02-01T15:11:10;8.20;99.90
27900;DHT22;15243;50.726;7.080;2023-02-01T15:13:39;8.30;99.90
27900;DHT22;15243;50.726;7.080;2023-02-01T15:16:13;8.30;99.90
27900;DHT22;15243;50.726;7.080;2023-02-01T15:18:41;8.20;99.90
27900;DHT22;15243;50.726;7.080;2023-02-01T15:21:24;8.20;99.90
27900;DHT22;15243;50.726;7.080;2023-02-01T15:24:19;8.30;99.90
27900;DHT22;15243;50.726;7.080;2023-02-01T15:26:46;8.30;99.90
27900;DHT22;15243;50.726;7.080;2023-02-01T15:29:14;8.30;99.90
27900;DHT22;15243;50.726;7.080;2023-02-01T15:31:44;8.30;99.90
27900;DHT22;15243;50.726;7.080;2023-02-01T15:34:12;8.30;99.90
27900;DHT22;15243;50.726;7.080;2023-02-01T15:36:40;8.30;99.90
27900;DHT22;15243;50.726;7.080;2023-02-01T15:39:25;8.30;99.90
27900;DHT22;15243;50.726;7.080;2023-02-01T15:41:57;8.30;99.90
27900;DHT22;15243;50.726;7.080;2023-02-01T15:44:32;8.30;99.90
27900;DHT22;15243;50.726;7.080;2023-02-01T15:47:06;8.30;99.90
27900;DHT22;15243;50.726;7.080;2023-02-01T15:49:39;8.30;99.90
27900;DHT22;15243;50.726;7.080;2023-02-01T15:52:39;8.20;99.90
27900;DHT22;15243;50.726;7.080;2023-02-01T15:55:17;8.30;99.90
27900;DHT22;15243;50.726;7.080;2023-02-01T15:57:45;8.30;99.90
27900;DHT22;15243;50.726;7.080;2023-02-01T16:00:26;8.10;99.90
27900;DHT22;15243;50.726;7.080;2023-02-01T16:02:58;7.90;99.90
27900;DHT22;15243;50.726;7.080;2023-02-01T16:05:42;7.70;99.90
27900;DHT22;15243;50.726;7.080;2023-02-01T16:08:19;7.60;99.90
27900;DHT22;15243;50.726;7.080;2023-02-01T16:10:51;7.60;99.90
27900;DHT22;15243;50.726;7.080;2023-02-01T16:13:19;7.50;99.90
27900;DHT22;15243;50.726;7.080;2023-02-01T16:15:47;7.40;99.90
27900;DHT22;15243;50.726;7.080;2023-02-01T16:18:14;7.30;99.90
27900;DHT22;15243;50.726;7.080;2023-02-01T16:20:44;7.40;99.90
27900;DHT22;15243;50.726;7.080;2023-02-01T16:23:11;7.30;99.90
27900;DHT22;15243;50.726;7.080;2023-02-01T16:25:39;7.30;99.90
27900;DHT22;15243;50.726;7.080;2023-02-01T16:28:07;7.20;99.90
27900;DHT22;15243;50.726;7.080;2023-02-01T16:30:35;7.20;99.90
27900;DHT22;15243;50.726;7.080;2023-02-01T16:33:02;7.10;99.90
27900;DHT22;15243;50.726;7.080;2023-02-01T16:35:36;7.00;99.90
27900;DHT22;15243;50.726;7.080;2023-02-01T16:38:05;7.00;99.90
27900;DHT22;15243;50.726;7.080;2023-02-01T16:40:39;7.00;99.90
27900;DHT22;15243;50.726;7.080;2023-02-01T16:43:14;6.90;99.90
27900;DHT22;15243;50.726;7.080;2023-02-01T16:45:42;6.80;99.90
27900;DHT22;15243;50.726;7.080;2023-02-01T16:48:26;6.70;99.90
27900;DHT22;15243;50.726;7.080;2023-02-01T16:51:02;6.70;99.90
27900;DHT22;15243;50.726;7.080;2023-02-01T16:53:30;6.60;99.90
27900;DHT22;15243;50.726;7.080;2023-02-01T16:58:43;6.60;99.90
27900;DHT22;15243;50.726;7.080;2023-02-01T17:01:11;6.60;99.90
27900;DHT22;15243;50.726;7.080;2023-02-01T17:03:39;6.60;99.90
27900;DHT22;15243;50.726;7.080;2023-02-01T17:06:09;6.50;99.90
27900;DHT22;15243;50.726;7.080;2023-02-01T17:08:40;6.50;99.90
27900;DHT22;15243;50.726;7.080;2023-02-01T17:11:07;6.40;99.90
27900;DHT22;15243;50.726;7.080;2023-02-01T17:13:35;6.40;99.90
27900;DHT22;15243;50.726;7.080;2023-02-01T17:18:53;6.30;99.90
27900;DHT22;15243;50.726;7.080;2023-02-01T17:21:21;6.30;99.90
27900;DHT22;15243;50.726;7.080;2023-02-01T17:23:48;6.30;99.90
27900;DHT22;15243;50.726;7.080;2023-02-01T17:26:15;6.20;99.90
27900;DHT22;15243;50.726;7.080;2023-02-01T17:28:42;6.20;99.90
27900;DHT22;15243;50.726;7.080;2023-02-01T17:31:13;6.30;99.90
27900;DHT22;15243;50.726;7.080;2023-02-01T17:33:43;6.30;99.90
27900;DHT22;15243;50.726;7.080;2023-02-01T17:36:16;6.30;99.90
27900;DHT22;15243;50.726;7.080;2023-02-01T17:38:43;6.30;99.90
27900;DHT22;15243;50.726;7.080;2023-02-01T17:41:19;6.30;99.90
27900;DHT22;15243;50.726;7.080;2023-02-01T17:43:47;6.40;99.90
27900;DHT22;15243;50.726;7.080;2023-02-01T17:46:16;6.30;99.90
27900;DHT22;15243;50.726;7.080;2023-02-01T17:48:54;6.30;99.90
27900;DHT22;15243;50.726;7.080;2023-02-01T17:51:24;6.30;99.90
27900;DHT22;15243;50.726;7.080;2023-02-01T17:53:52;6.30;99.90
27900;DHT22;15243;50.726;7.080;2023-02-01T17:56:21;6.30;99.90
27900;DHT22;15243;50.726;7.080;2023-02-01T17:58:49;6.40;99.90
27900;DHT22;15243;50.726;7.080;2023-02-01T18:01:21;6.40;99.90
27900;DHT22;15243;50.726;7.080;2023-02-01T18:03:48;6.50;99.90
27900;DHT22;15243;50.726;7.080;2023-02-01T18:06:22;6.40;99.90
27900;DHT22;15243;50.726;7.080;2023-02-01T18:08:50;6.50;99.90
27900;DHT22;15243;50.726;7.080;2023-02-01T18:11:18;6.50;99.90
27900;DHT22;15243;50.726;7.080;2023-02-01T18:13:46;6.50;99.90
27900;DHT22;15243;50.726;7.080;2023-02-01T18:16:21;6.50;99.90
27900;DHT22;15243;50.726;7.080;2023-02-01T18:18:49;6.60;99.90
27900;DHT22;15243;50.726;7.080;2023-02-01T18:21:17;6.60;99.90
27900;DHT22;15243;50.726;7.080;2023-02-01T18:23:44;6.60;99.90
27900;DHT22;15243;50.726;7.080;2023-02-01T18:26:16;6.60;99.90
27900;DHT22;15243;50.726;7.080;2023-02-01T18:28:43;6.70;99.90
27900;DHT22;15243;50.726;7.080;2023-02-01T18:33:49;6.70;99.90
27900;DHT22;15243;50.726;7.080;2023-02-01T18:36:16;6.80;99.90